sensor_id;sensor_type;location;lat;lon;timestamp;temperature;humidity
17452;DHT22;8843;48.838;9.324;2022-08-21T00:01:25;21.70;73.90
17452;DHT22;8843;48.838;9.324;2022-08-21T00:03:53;21.70;73.90
17452;DHT22;8843;48.838;9.324;2022-08-21T00:06:22;21.70;73.90
17452;DHT22;8843;48.838;9.324;2022-08-21T00:08:49;21.70;73.90
17452;DHT22;8843;48.838;9.324;2022-08-21T00:11:19;21.70;73.90
17452;DHT22;8843;48.838;9.324;2022-08-21T00:13:47;21.70;73.80
17452;DHT22;8843;48.838;9.324;2022-08-21T00:16:14;21.60;73.70
17452;DHT22;8843;48.838;9.324;2022-08-21T00:18:40;21.70;73.70
17452;DHT22;8843;48.838;9.324;2022-08-21T00:21:07;21.60;73.60
17452;DHT22;8843;48.838;9.324;2022-08-21T00:23:34;21.60;73.60
17452;DHT22;8843;48.838;9.324;2022-08-21T00:26:01;21.60;73.60
17452;DHT22;8843;48.838;9.324;2022-08-21T00:28:30;21.60;73.50
17452;DHT22;8843;48.838;9.324;2022-08-21T00:30:58;21.60;73.50
17452;DHT22;8843;48.838;9.324;2022-08-21T00:33:26;21.60;73.50
17452;DHT22;8843;48.838;9.324;2022-08-21T00:35:53;21.60;74.30
17452;DHT22;8843;48.838;9.324;2022-08-21T00:38:20;21.60;73.50
17452;DHT22;8843;48.838;9.324;2022-08-21T00:40:49;21.60;73.40
17452;DHT22;8843;48.838;9.324;2022-08-21T00:43:19;21.60;73.40
17452;DHT22;8843;48.838;9.324;2022-08-21T00:45:48;21.60;73.30
17452;DHT22;8843;48.838;9.324;2022-08-21T00:48:15;21.60;73.30
17452;DHT22;8843;48.838;9.324;2022-08-21T00:50:46;21.60;73.30
17452;DHT22;8843;48.838;9.324;2022-08-21T00:53:15;21.60;73.30
17452;DHT22;8843;48.838;9.324;2022-08-21T00:55:43;21.60;73.30
17452;DHT22;8843;48.838;9.324;2022-08-21T00:58:12;21.60;73.30
17452;DHT22;8843;48.838;9.324;2022-08-21T01:00:42;21.60;73.30
17452;DHT22;8843;48.838;9.324;2022-08-21T01:03:13;21.50;73.10
17452;DHT22;8843;48.838;9.324;2022-08-21T01:05:42;21.60;73.20
17452;DHT22;8843;48.838;9.324;2022-08-21T01:08:10;21.50;73.10
17452;DHT22;8843;48.838;9.324;2022-08-21T01:10:38;21.50;73.10
17452;DHT22;8843;48.838;9.324;2022-08-21T01:13:07;21.50;73.00
17452;DHT22;8843;48.838;9.324;2022-08-21T01:15:36;21.50;73.10
17452;DHT22;8843;48.838;9.324;2022-08-21T01:18:06;21.50;73.00
17452;DHT22;8843;48.838;9.324;2022-08-21T01:20:35;21.50;73.00
17452;DHT22;8843;48.838;9.324;2022-08-21T01:23:05;21.50;73.00
17452;DHT22;8843;48.838;9.324;2022-08-21T01:25:33;21.50;73.00
17452;DHT22;8843;48.838;9.324;2022-08-21T01:28:11;21.50;73.00
17452;DHT22;8843;48.838;9.324;2022-08-21T01:30:39;21.50;72.90
17452;DHT22;8843;48.838;9.324;2022-08-21T01:33:06;21.50;72.90
17452;DHT22;8843;48.838;9.324;2022-08-21T01:35:33;21.50;72.90
17452;DHT22;8843;48.838;9.324;2022-08-21T01:38:01;21.50;72.90
17452;DHT22;8843;48.838;9.324;2022-08-21T01:40:29;21.50;72.90
17452;DHT22;8843;48.838;9.324;2022-08-21T01:42:56;21.50;72.80
17452;DHT22;8843;48.838;9.324;2022-08-21T01:45:23;21.50;72.80
17452;DHT22;8843;48.838;9.324;2022-08-21T01:47:50;21.50;72.90
17452;DHT22;8843;48.838;9.324;2022-08-21T01:50:19;21.50;72.90
17452;DHT22;8843;48.838;9.324;2022-08-21T01:52:46;21.50;72.80
17452;DHT22;8843;48.838;9.324;2022-08-21T01:55:14;21.50;72.80
17452;DHT22;8843;48.838;9.324;2022-08-21T01:57:43;21.50;72.80
17452;DHT22;8843;48.838;9.324;2022-08-21T02:00:12;21.40;72.70
17452;DHT22;8843;48.838;9.324;2022-08-21T02:02:40;21.40;72.70
17452;DHT22;8843;48.838;9.324;2022-08-21T02:05:09;21.50;72.80
17452;DHT22;8843;48.838;9.324;2022-08-21T02:07:37;21.40;72.70
17452;DHT22;8843;48.838;9.324;2022-08-21T02:10:06;21.40;72.70
17452;DHT22;8843;48.838;9.324;2022-08-21T02:12:33;21.40;72.70
17452;DHT22;8843;48.838;9.324;2022-08-21T02:15:02;21.40;72.70
17452;DHT22;8843;48.838;9.324;2022-08-21T02:17:37;21.40;72.70
17452;DHT22;8843;48.838;9.324;2022-08-21T02:20:05;21.40;72.60
17452;DHT22;8843;48.838;9.324;2022-08-21T02:22:32;21.40;72.70
17452;DHT22;8843;48.838;9.324;2022-08-21T02:24:59;21.40;72.60
17452;DHT22;8843;48.838;9.324;2022-08-21T02:27:26;21.40;72.60
17452;DHT22;8843;48.838;9.324;2022-08-21T02:29:54;21.40;72.60
17452;DHT22;8843;48.838;9.324;2022-08-21T02:32:23;21.40;72.50
17452;DHT22;8843;48.838;9.324;2022-08-21T02:34:50;21.40;72.50
17452;DHT22;8843;48.838;9.324;2022-08-21T02:37:17;21.40;72.60
17452;DHT22;8843;48.838;9.324;2022-08-21T02:39:44;21.30;72.40
17452;DHT22;8843;48.838;9.324;2022-08-21T02:42:11;21.40;72.60
17452;DHT22;8843;48.838;9.324;2022-08-21T02:44:38;21.40;72.50
17452;DHT22;8843;48.838;9.324;2022-08-21T02:47:05;21.40;73.20
17452;DHT22;8843;48.838;9.324;2022-08-21T02:49:34;21.30;72.40
17452;DHT22;8843;48.838;9.324;2022-08-21T02:52:01;21.30;72.40
17452;DHT22;8843;48.838;9.324;2022-08-21T02:54:28;21.30;72.40
17452;DHT22;8843;48.838;9.324;2022-08-21T02:56:55;21.30;72.30
17452;DHT22;8843;48.838;9.324;2022-08-21T02:59:22;21.30;72.30
17452;DHT22;8843;48.838;9.324;2022-08-21T03:01:49;21.30;72.30
17452;DHT22;8843;48.838;9.324;2022-08-21T03:04:15;21.30;72.30
17452;DHT22;8843;48.838;9.324;2022-08-21T03:06:44;21.30;72.30
17452;DHT22;8843;48.838;9.324;2022-08-21T03:09:11;21.30;72.30
17452;DHT22;8843;48.838;9.324;2022-08-21T03:11:37;21.30;72.30
17452;DHT22;8843;48.838;9.324;2022-08-21T03:14:04;21.30;72.20
17452;DHT22;8843;48.838;9.324;2022-08-21T03:16:31;21.30;72.20
17452;DHT22;8843;48.838;9.324;2022-08-21T03:18:58;21.30;72.20
17452;DHT22;8843;48.838;9.324;2022-08-21T03:21:25;21.30;72.20
17452;DHT22;8843;48.838;9.324;2022-08-21T03:23:54;21.30;72.30
17452;DHT22;8843;48.838;9.324;2022-08-21T03:26:21;21.30;72.10
17452;DHT22;8843;48.838;9.324;2022-08-21T03:28:49;21.20;72.00
17452;DHT22;8843;48.838;9.324;2022-08-21T03:31:17;21.20;72.00
17452;DHT22;8843;48.838;9.324;2022-08-21T03:33:44;21.20;72.10
17452;DHT22;8843;48.838;9.324;2022-08-21T03:36:11;21.20;72.00
17452;DHT22;8843;48.838;9.324;2022-08-21T03:38:38;21.20;72.00
17452;DHT22;8843;48.838;9.324;2022-08-21T03:41:07;21.20;72.00
17452;DHT22;8843;48.838;9.324;2022-08-21T03:43:34;21.20;72.00
17452;DHT22;8843;48.838;9.324;2022-08-21T03:46:03;21.20;72.00
17452;DHT22;8843;48.838;9.324;2022-08-21T03:48:32;21.20;72.00
17452;DHT22;8843;48.838;9.324;2022-08-21T03:51:00;21.20;71.90
17452;DHT22;8843;48.838;9.324;2022-08-21T03:53:27;21.20;72.00
17452;DHT22;8843;48.838;9.324;2022-08-21T03:55:56;21.20;71.90
17452;DHT22;8843;48.838;9.324;2022-08-21T03:58:26;21.20;71.90
17452;DHT22;8843;48.838;9.324;2022-08-21T04:00:56;21.20;71.90
17452;DHT22;8843;48.838;9.324;2022-08-21T04:03:23;21.20;71.90
17452;DHT22;8843;48.838;9.324;2022-08-21T04:05:50;21.20;71.80
17452;DHT22;8843;48.838;9.324;2022-08-21T04:08:18;21.20;71.90
17452;DHT22;8843;48.838;9.324;2022-08-21T04:10:47;21.20;71.90
17452;DHT22;8843;48.838;9.324;2022-08-21T04:13:15;21.20;71.80
17452;DHT22;8843;48.838;9.324;2022-08-21T04:15:43;21.10;71.70
17452;DHT22;8843;48.838;9.324;2022-08-21T04:18:10;21.10;71.80
17452;DHT22;8843;48.838;9.324;2022-08-21T04:20:39;21.10;71.70
17452;DHT22;8843;48.838;9.324;2022-08-21T04:23:06;21.10;71.60
17452;DHT22;8843;48.838;9.324;2022-08-21T04:25:34;21.10;71.70
17452;DHT22;8843;48.838;9.324;2022-08-21T04:28:01;21.10;71.60
17452;DHT22;8843;48.838;9.324;2022-08-21T04:30:28;21.10;71.60
17452;DHT22;8843;48.838;9.324;2022-08-21T04:32:57;21.10;71.60
17452;DHT22;8843;48.838;9.324;2022-08-21T04:35:26;21.10;71.60
17452;DHT22;8843;48.838;9.324;2022-08-21T04:37:54;21.10;71.60
17452;DHT22;8843;48.838;9.324;2022-08-21T04:40:25;21.10;71.60
17452;DHT22;8843;48.838;9.324;2022-08-21T04:42:55;21.10;71.60
17452;DHT22;8843;48.838;9.324;2022-08-21T04:45:24;21.10;71.60
17452;DHT22;8843;48.838;9.324;2022-08-21T04:47:53;21.10;71.60
17452;DHT22;8843;48.838;9.324;2022-08-21T04:50:23;21.10;71.60
17452;DHT22;8843;48.838;9.324;2022-08-21T04:52:51;21.10;71.50
17452;DHT22;8843;48.838;9.324;2022-08-21T04:55:19;21.00;71.40
17452;DHT22;8843;48.838;9.324;2022-08-21T04:57:47;21.00;71.50
17452;DHT22;8843;48.838;9.324;2022-08-21T05:00:17;21.00;71.40
17452;DHT22;8843;48.838;9.324;2022-08-21T05:02:44;21.00;71.40
17452;DHT22;8843;48.838;9.324;2022-08-21T05:05:13;21.00;71.40
17452;DHT22;8843;48.838;9.324;2022-08-21T05:07:42;21.00;71.30
17452;DHT22;8843;48.838;9.324;2022-08-21T05:10:11;21.00;71.30
17452;DHT22;8843;48.838;9.324;2022-08-21T05:12:39;21.00;71.30
17452;DHT22;8843;48.838;9.324;2022-08-21T05:15:08;21.00;71.30
17452;DHT22;8843;48.838;9.324;2022-08-21T05:17:35;21.00;71.30
17452;DHT22;8843;48.838;9.324;2022-08-21T05:20:03;21.00;71.30
17452;DHT22;8843;48.838;9.324;2022-08-21T05:22:30;21.00;71.30
17452;DHT22;8843;48.838;9.324;2022-08-21T05:24:58;21.00;71.30
17452;DHT22;8843;48.838;9.324;2022-08-21T05:27:25;21.00;71.30
17452;DHT22;8843;48.838;9.324;2022-08-21T05:29:55;21.00;71.30
17452;DHT22;8843;48.838;9.324;2022-08-21T05:32:22;21.00;71.30
17452;DHT22;8843;48.838;9.324;2022-08-21T05:34:49;21.00;71.40
17452;DHT22;8843;48.838;9.324;2022-08-21T05:37:16;20.80;71.60
17452;DHT22;8843;48.838;9.324;2022-08-21T05:39:43;20.60;71.50
17452;DHT22;8843;48.838;9.324;2022-08-21T05:42:12;20.50;70.00
17452;DHT22;8843;48.838;9.324;2022-08-21T05:44:39;20.50;71.30
17452;DHT22;8843;48.838;9.324;2022-08-21T05:47:07;20.50;70.80
17452;DHT22;8843;48.838;9.324;2022-08-21T05:49:34;20.50;70.60
17452;DHT22;8843;48.838;9.324;2022-08-21T05:52:02;20.60;73.20
17452;DHT22;8843;48.838;9.324;2022-08-21T05:54:29;20.70;72.20
17452;DHT22;8843;48.838;9.324;2022-08-21T05:56:56;20.80;73.30
17452;DHT22;8843;48.838;9.324;2022-08-21T05:59:25;20.90;73.80
17452;DHT22;8843;48.838;9.324;2022-08-21T06:01:53;20.90;72.30
17452;DHT22;8843;48.838;9.324;2022-08-21T06:04:20;20.90;72.80
17452;DHT22;8843;48.838;9.324;2022-08-21T06:06:47;20.90;72.90
17452;DHT22;8843;48.838;9.324;2022-08-21T06:09:14;20.90;73.10
17452;DHT22;8843;48.838;9.324;2022-08-21T06:11:41;20.90;73.00
17452;DHT22;8843;48.838;9.324;2022-08-21T06:14:08;20.90;72.90
17452;DHT22;8843;48.838;9.324;2022-08-21T06:16:36;20.90;73.50
17452;DHT22;8843;48.838;9.324;2022-08-21T06:19:03;20.80;73.20
17452;DHT22;8843;48.838;9.324;2022-08-21T06:21:30;20.80;73.40
17452;DHT22;8843;48.838;9.324;2022-08-21T06:23:57;20.80;72.50
17452;DHT22;8843;48.838;9.324;2022-08-21T06:26:24;20.80;73.70
17452;DHT22;8843;48.838;9.324;2022-08-21T06:28:51;19.80;70.40
17452;DHT22;8843;48.838;9.324;2022-08-21T06:31:23;19.10;73.20
17452;DHT22;8843;48.838;9.324;2022-08-21T06:33:53;18.80;74.80
17452;DHT22;8843;48.838;9.324;2022-08-21T06:36:20;19.00;75.10
17452;DHT22;8843;48.838;9.324;2022-08-21T06:38:47;19.10;75.10
17452;DHT22;8843;48.838;9.324;2022-08-21T06:41:14;19.40;77.60
17452;DHT22;8843;48.838;9.324;2022-08-21T06:43:41;19.40;74.00
17452;DHT22;8843;48.838;9.324;2022-08-21T06:46:08;19.20;74.80
17452;DHT22;8843;48.838;9.324;2022-08-21T06:48:35;19.40;77.50
17452;DHT22;8843;48.838;9.324;2022-08-21T06:51:04;19.80;76.10
17452;DHT22;8843;48.838;9.324;2022-08-21T06:53:31;19.90;75.70
17452;DHT22;8843;48.838;9.324;2022-08-21T06:55:58;19.90;75.70
17452;DHT22;8843;48.838;9.324;2022-08-21T06:58:25;19.90;75.30
17452;DHT22;8843;48.838;9.324;2022-08-21T07:00:52;19.90;76.20
17452;DHT22;8843;48.838;9.324;2022-08-21T07:03:22;19.90;75.60
17452;DHT22;8843;48.838;9.324;2022-08-21T07:05:49;20.00;75.60
17452;DHT22;8843;48.838;9.324;2022-08-21T07:08:18;20.00;75.60
17452;DHT22;8843;48.838;9.324;2022-08-21T07:10:45;20.10;75.70
17452;DHT22;8843;48.838;9.324;2022-08-21T07:13:12;20.00;76.10
17452;DHT22;8843;48.838;9.324;2022-08-21T07:15:39;20.10;76.00
17452;DHT22;8843;48.838;9.324;2022-08-21T07:18:06;20.10;76.40
17452;DHT22;8843;48.838;9.324;2022-08-21T07:20:33;20.00;77.60
17452;DHT22;8843;48.838;9.324;2022-08-21T07:23:04;19.60;77.30
17452;DHT22;8843;48.838;9.324;2022-08-21T07:25:33;19.50;78.30
17452;DHT22;8843;48.838;9.324;2022-08-21T07:28:00;19.50;78.90
17452;DHT22;8843;48.838;9.324;2022-08-21T07:30:27;19.60;79.30
17452;DHT22;8843;48.838;9.324;2022-08-21T07:32:54;19.80;78.30
17452;DHT22;8843;48.838;9.324;2022-08-21T07:35:22;19.80;78.70
17452;DHT22;8843;48.838;9.324;2022-08-21T07:37:49;19.70;80.80
17452;DHT22;8843;48.838;9.324;2022-08-21T07:40:17;19.90;77.80
17452;DHT22;8843;48.838;9.324;2022-08-21T07:42:47;20.10;76.30
17452;DHT22;8843;48.838;9.324;2022-08-21T07:45:32;20.00;79.00
17452;DHT22;8843;48.838;9.324;2022-08-21T07:47:59;20.00;78.80
17452;DHT22;8843;48.838;9.324;2022-08-21T07:50:25;20.00;78.30
17452;DHT22;8843;48.838;9.324;2022-08-21T07:52:52;20.10;80.70
17452;DHT22;8843;48.838;9.324;2022-08-21T07:55:21;20.10;77.60
17452;DHT22;8843;48.838;9.324;2022-08-21T07:57:49;20.30;76.50
17452;DHT22;8843;48.838;9.324;2022-08-21T08:00:19;20.30;77.20
17452;DHT22;8843;48.838;9.324;2022-08-21T08:02:49;20.30;78.30
17452;DHT22;8843;48.838;9.324;2022-08-21T08:05:19;20.30;76.40
17452;DHT22;8843;48.838;9.324;2022-08-21T08:07:46;20.30;75.50
17452;DHT22;8843;48.838;9.324;2022-08-21T08:10:14;20.40;76.30
17452;DHT22;8843;48.838;9.324;2022-08-21T08:12:42;20.30;75.80
17452;DHT22;8843;48.838;9.324;2022-08-21T08:15:14;20.40;76.40
17452;DHT22;8843;48.838;9.324;2022-08-21T08:17:41;20.50;76.60
17452;DHT22;8843;48.838;9.324;2022-08-21T08:20:10;20.50;76.40
17452;DHT22;8843;48.838;9.324;2022-08-21T08:22:38;20.50;75.60
17452;DHT22;8843;48.838;9.324;2022-08-21T08:25:08;20.50;74.80
17452;DHT22;8843;48.838;9.324;2022-08-21T08:27:35;20.40;74.70
17452;DHT22;8843;48.838;9.324;2022-08-21T08:30:03;20.40;75.20
17452;DHT22;8843;48.838;9.324;2022-08-21T08:32:32;20.40;74.90
17452;DHT22;8843;48.838;9.324;2022-08-21T08:34:59;20.40;74.10
17452;DHT22;8843;48.838;9.324;2022-08-21T08:37:25;20.50;74.50
17452;DHT22;8843;48.838;9.324;2022-08-21T08:39:52;20.50;73.80
17452;DHT22;8843;48.838;9.324;2022-08-21T08:42:25;20.40;74.50
17452;DHT22;8843;48.838;9.324;2022-08-21T08:45:00;20.50;74.80
17452;DHT22;8843;48.838;9.324;2022-08-21T08:47:29;20.50;74.60
17452;DHT22;8843;48.838;9.324;2022-08-21T08:50:03;20.60;74.40
17452;DHT22;8843;48.838;9.324;2022-08-21T08:52:32;20.60;74.90
17452;DHT22;8843;48.838;9.324;2022-08-21T08:55:02;20.60;74.90
17452;DHT22;8843;48.838;9.324;2022-08-21T08:57:32;20.60;74.90
17452;DHT22;8843;48.838;9.324;2022-08-21T09:00:01;20.80;74.90
17452;DHT22;8843;48.838;9.324;2022-08-21T09:02:28;20.80;74.60
17452;DHT22;8843;48.838;9.324;2022-08-21T09:04:56;20.80;74.50
17452;DHT22;8843;48.838;9.324;2022-08-21T09:07:34;20.80;74.70
17452;DHT22;8843;48.838;9.324;2022-08-21T09:10:11;20.90;75.40
17452;DHT22;8843;48.838;9.324;2022-08-21T09:12:50;21.00;75.10
17452;DHT22;8843;48.838;9.324;2022-08-21T09:15:25;21.10;75.50
17452;DHT22;8843;48.838;9.324;2022-08-21T09:18:06;21.30;75.20
17452;DHT22;8843;48.838;9.324;2022-08-21T09:20:41;21.40;75.50
17452;DHT22;8843;48.838;9.324;2022-08-21T09:23:22;21.40;76.20
17452;DHT22;8843;48.838;9.324;2022-08-21T09:25:58;21.50;75.00
17452;DHT22;8843;48.838;9.324;2022-08-21T09:28:26;21.70;75.30
17452;DHT22;8843;48.838;9.324;2022-08-21T09:30:55;21.70;75.70
17452;DHT22;8843;48.838;9.324;2022-08-21T09:33:23;22.30;70.00
17452;DHT22;8843;48.838;9.324;2022-08-21T09:35:53;22.30;68.80
17452;DHT22;8843;48.838;9.324;2022-08-21T09:38:28;22.60;69.00
17452;DHT22;8843;48.838;9.324;2022-08-21T09:40:59;22.60;64.80
17452;DHT22;8843;48.838;9.324;2022-08-21T09:43:27;22.50;70.80
17452;DHT22;8843;48.838;9.324;2022-08-21T09:46:06;22.40;72.10
17452;DHT22;8843;48.838;9.324;2022-08-21T09:48:41;22.50;72.60
17452;DHT22;8843;48.838;9.324;2022-08-21T09:51:10;22.70;71.90
17452;DHT22;8843;48.838;9.324;2022-08-21T09:53:43;22.80;70.50
17452;DHT22;8843;48.838;9.324;2022-08-21T09:56:21;22.60;71.30
17452;DHT22;8843;48.838;9.324;2022-08-21T09:59:19;22.70;71.70
17452;DHT22;8843;48.838;9.324;2022-08-21T10:01:49;22.90;72.00
17452;DHT22;8843;48.838;9.324;2022-08-21T10:04:20;23.40;69.40
17452;DHT22;8843;48.838;9.324;2022-08-21T10:06:48;23.50;68.70
17452;DHT22;8843;48.838;9.324;2022-08-21T10:09:18;23.50;67.90
17452;DHT22;8843;48.838;9.324;2022-08-21T10:11:52;23.50;68.90
17452;DHT22;8843;48.838;9.324;2022-08-21T10:14:38;23.60;66.80
17452;DHT22;8843;48.838;9.324;2022-08-21T10:17:15;23.50;65.80
17452;DHT22;8843;48.838;9.324;2022-08-21T10:19:48;23.60;66.80
17452;DHT22;8843;48.838;9.324;2022-08-21T10:22:25;23.90;68.10
17452;DHT22;8843;48.838;9.324;2022-08-21T10:25:04;24.00;64.80
17452;DHT22;8843;48.838;9.324;2022-08-21T10:27:39;24.20;66.60
17452;DHT22;8843;48.838;9.324;2022-08-21T10:30:11;24.40;64.10
17452;DHT22;8843;48.838;9.324;2022-08-21T10:32:56;24.60;65.00
17452;DHT22;8843;48.838;9.324;2022-08-21T10:35:30;24.90;64.80
17452;DHT22;8843;48.838;9.324;2022-08-21T10:41:13;25.20;64.00
17452;DHT22;8843;48.838;9.324;2022-08-21T10:43:45;25.50;63.70
17452;DHT22;8843;48.838;9.324;2022-08-21T10:46:29;25.60;62.20
17452;DHT22;8843;48.838;9.324;2022-08-21T10:49:02;25.70;62.70
17452;DHT22;8843;48.838;9.324;2022-08-21T10:51:40;25.70;61.50
17452;DHT22;8843;48.838;9.324;2022-08-21T10:54:14;25.90;60.80
17452;DHT22;8843;48.838;9.324;2022-08-21T10:56:47;26.00;60.80
17452;DHT22;8843;48.838;9.324;2022-08-21T10:59:23;25.80;60.90
17452;DHT22;8843;48.838;9.324;2022-08-21T11:01:57;25.90;59.90
17452;DHT22;8843;48.838;9.324;2022-08-21T11:04:30;26.20;59.60
17452;DHT22;8843;48.838;9.324;2022-08-21T11:07:02;25.80;59.50
17452;DHT22;8843;48.838;9.324;2022-08-21T11:09:31;26.40;58.80
17452;DHT22;8843;48.838;9.324;2022-08-21T11:12:04;26.60;57.00
17452;DHT22;8843;48.838;9.324;2022-08-21T11:14:39;26.80;57.00
17452;DHT22;8843;48.838;9.324;2022-08-21T11:17:09;26.60;57.60
17452;DHT22;8843;48.838;9.324;2022-08-21T11:19:42;26.80;56.90
17452;DHT22;8843;48.838;9.324;2022-08-21T11:22:17;26.50;57.30
17452;DHT22;8843;48.838;9.324;2022-08-21T11:24:57;26.60;57.00
17452;DHT22;8843;48.838;9.324;2022-08-21T11:27:33;26.80;56.60
17452;DHT22;8843;48.838;9.324;2022-08-21T11:30:04;27.00;56.10
17452;DHT22;8843;48.838;9.324;2022-08-21T11:32:46;27.10;56.20
17452;DHT22;8843;48.838;9.324;2022-08-21T11:35:22;27.20;55.90
17452;DHT22;8843;48.838;9.324;2022-08-21T11:38:01;27.30;55.60
17452;DHT22;8843;48.838;9.324;2022-08-21T11:40:41;26.70;56.30
17452;DHT22;8843;48.838;9.324;2022-08-21T11:43:17;27.10;54.90
17452;DHT22;8843;48.838;9.324;2022-08-21T11:45:50;27.30;54.90
17452;DHT22;8843;48.838;9.324;2022-08-21T11:48:33;27.20;55.60
17452;DHT22;8843;48.838;9.324;2022-08-21T11:51:07;27.30;54.80
17452;DHT22;8843;48.838;9.324;2022-08-21T11:53:41;27.50;54.30
17452;DHT22;8843;48.838;9.324;2022-08-21T11:56:19;27.70;53.90
17452;DHT22;8843;48.838;9.324;2022-08-21T11:58:51;27.60;54.00
17452;DHT22;8843;48.838;9.324;2022-08-21T12:01:22;27.60;53.60
17452;DHT22;8843;48.838;9.324;2022-08-21T12:03:57;27.80;53.40
17452;DHT22;8843;48.838;9.324;2022-08-21T12:06:30;27.80;52.50
17452;DHT22;8843;48.838;9.324;2022-08-21T12:08:59;27.50;53.00
17452;DHT22;8843;48.838;9.324;2022-08-21T12:11:27;27.40;53.80
17452;DHT22;8843;48.838;9.324;2022-08-21T12:13:58;27.40;53.80
17452;DHT22;8843;48.838;9.324;2022-08-21T12:16:30;27.40;52.50
17452;DHT22;8843;48.838;9.324;2022-08-21T12:19:03;27.50;52.40
17452;DHT22;8843;48.838;9.324;2022-08-21T12:21:31;27.60;52.40
17452;DHT22;8843;48.838;9.324;2022-08-21T12:24:03;27.70;52.70
17452;DHT22;8843;48.838;9.324;2022-08-21T12:26:32;27.80;52.10
17452;DHT22;8843;48.838;9.324;2022-08-21T12:29:13;27.80;52.40
17452;DHT22;8843;48.838;9.324;2022-08-21T12:31:51;27.70;51.40
17452;DHT22;8843;48.838;9.324;2022-08-21T12:34:20;27.80;51.60
17452;DHT22;8843;48.838;9.324;2022-08-21T12:36:52;27.90;51.00
17452;DHT22;8843;48.838;9.324;2022-08-21T12:39:25;28.10;51.00
17452;DHT22;8843;48.838;9.324;2022-08-21T12:41:56;28.00;50.70
17452;DHT22;8843;48.838;9.324;2022-08-21T12:44:30;28.10;49.20
17452;DHT22;8843;48.838;9.324;2022-08-21T12:47:03;28.10;50.30
17452;DHT22;8843;48.838;9.324;2022-08-21T12:49:34;27.80;51.10
17452;DHT22;8843;48.838;9.324;2022-08-21T12:52:09;27.90;50.40
17452;DHT22;8843;48.838;9.324;2022-08-21T12:54:43;28.10;48.80
17452;DHT22;8843;48.838;9.324;2022-08-21T12:57:19;28.10;50.00
17452;DHT22;8843;48.838;9.324;2022-08-21T12:59:58;28.30;49.50
17452;DHT22;8843;48.838;9.324;2022-08-21T13:02:26;28.30;50.20
17452;DHT22;8843;48.838;9.324;2022-08-21T13:04:55;28.30;49.00
17452;DHT22;8843;48.838;9.324;2022-08-21T13:07:27;28.20;48.10
17452;DHT22;8843;48.838;9.324;2022-08-21T13:09:59;28.40;48.80
17452;DHT22;8843;48.838;9.324;2022-08-21T13:12:27;28.20;50.00
17452;DHT22;8843;48.838;9.324;2022-08-21T13:14:58;28.20;48.20
17452;DHT22;8843;48.838;9.324;2022-08-21T13:17:26;28.10;48.80
17452;DHT22;8843;48.838;9.324;2022-08-21T13:19:59;28.20;49.50
17452;DHT22;8843;48.838;9.324;2022-08-21T13:22:27;28.30;49.20
17452;DHT22;8843;48.838;9.324;2022-08-21T13:24:55;28.00;49.20
17452;DHT22;8843;48.838;9.324;2022-08-21T13:27:25;27.80;49.90
17452;DHT22;8843;48.838;9.324;2022-08-21T13:30:09;28.20;47.40
17452;DHT22;8843;48.838;9.324;2022-08-21T13:32:41;28.30;46.30
17452;DHT22;8843;48.838;9.324;2022-08-21T13:35:11;28.30;47.00
17452;DHT22;8843;48.838;9.324;2022-08-21T13:37:40;28.20;47.80
17452;DHT22;8843;48.838;9.324;2022-08-21T13:40:10;26.50;54.30
17452;DHT22;8843;48.838;9.324;2022-08-21T13:42:40;26.40;53.90
17452;DHT22;8843;48.838;9.324;2022-08-21T13:45:15;25.70;56.40
17452;DHT22;8843;48.838;9.324;2022-08-21T13:47:42;26.80;51.40
17452;DHT22;8843;48.838;9.324;2022-08-21T13:50:12;27.60;43.60
17452;DHT22;8843;48.838;9.324;2022-08-21T13:52:48;28.30;46.50
17452;DHT22;8843;48.838;9.324;2022-08-21T13:55:17;28.20;46.40
17452;DHT22;8843;48.838;9.324;2022-08-21T13:57:44;27.30;48.20
17452;DHT22;8843;48.838;9.324;2022-08-21T14:00:16;26.10;51.30
17452;DHT22;8843;48.838;9.324;2022-08-21T14:02:46;25.80;53.20
17452;DHT22;8843;48.838;9.324;2022-08-21T14:05:25;25.80;52.40
17452;DHT22;8843;48.838;9.324;2022-08-21T14:07:59;26.60;50.90
17452;DHT22;8843;48.838;9.324;2022-08-21T14:10:28;25.90;53.50
17452;DHT22;8843;48.838;9.324;2022-08-21T14:12:59;26.50;51.40
17452;DHT22;8843;48.838;9.324;2022-08-21T14:15:32;25.90;53.40
17452;DHT22;8843;48.838;9.324;2022-08-21T14:18:08;26.30;52.10
17452;DHT22;8843;48.838;9.324;2022-08-21T14:20:36;26.80;49.60
17452;DHT22;8843;48.838;9.324;2022-08-21T14:23:04;26.30;52.70
17452;DHT22;8843;48.838;9.324;2022-08-21T14:25:38;25.50;54.80
17452;DHT22;8843;48.838;9.324;2022-08-21T14:28:14;26.20;52.60
17452;DHT22;8843;48.838;9.324;2022-08-21T14:30:44;26.70;49.80
17452;DHT22;8843;48.838;9.324;2022-08-21T14:33:12;26.30;53.10
17452;DHT22;8843;48.838;9.324;2022-08-21T14:35:40;25.50;53.90
17452;DHT22;8843;48.838;9.324;2022-08-21T14:38:12;25.00;55.90
17452;DHT22;8843;48.838;9.324;2022-08-21T14:40:39;24.90;56.90
17452;DHT22;8843;48.838;9.324;2022-08-21T14:43:06;25.60;53.70
17452;DHT22;8843;48.838;9.324;2022-08-21T14:45:34;26.00;53.90
17452;DHT22;8843;48.838;9.324;2022-08-21T14:48:03;24.70;57.50
17452;DHT22;8843;48.838;9.324;2022-08-21T14:50:31;25.60;52.60
17452;DHT22;8843;48.838;9.324;2022-08-21T14:52:57;25.50;54.60
17452;DHT22;8843;48.838;9.324;2022-08-21T14:55:25;25.20;54.30
17452;DHT22;8843;48.838;9.324;2022-08-21T14:57:54;24.50;57.80
17452;DHT22;8843;48.838;9.324;2022-08-21T15:00:24;24.30;58.10
17452;DHT22;8843;48.838;9.324;2022-08-21T15:02:51;24.90;56.70
17452;DHT22;8843;48.838;9.324;2022-08-21T15:05:19;24.80;57.20
17452;DHT22;8843;48.838;9.324;2022-08-21T15:07:46;24.40;57.80
17452;DHT22;8843;48.838;9.324;2022-08-21T15:10:13;25.50;53.20
17452;DHT22;8843;48.838;9.324;2022-08-21T15:12:40;25.60;52.60
17452;DHT22;8843;48.838;9.324;2022-08-21T15:15:08;25.20;55.00
17452;DHT22;8843;48.838;9.324;2022-08-21T15:17:36;25.40;53.40
17452;DHT22;8843;48.838;9.324;2022-08-21T15:20:04;25.50;52.80
17452;DHT22;8843;48.838;9.324;2022-08-21T15:22:33;25.50;55.20
17452;DHT22;8843;48.838;9.324;2022-08-21T15:25:00;25.70;53.10
17452;DHT22;8843;48.838;9.324;2022-08-21T15:27:28;25.60;51.60
17452;DHT22;8843;48.838;9.324;2022-08-21T15:29:55;25.30;55.50
17452;DHT22;8843;48.838;9.324;2022-08-21T15:32:24;25.70;52.20
17452;DHT22;8843;48.838;9.324;2022-08-21T15:34:54;25.50;55.30
17452;DHT22;8843;48.838;9.324;2022-08-21T15:37:22;25.10;54.60
17452;DHT22;8843;48.838;9.324;2022-08-21T15:39:51;25.40;54.90
17452;DHT22;8843;48.838;9.324;2022-08-21T15:42:19;25.70;50.60
17452;DHT22;8843;48.838;9.324;2022-08-21T15:44:47;25.90;47.10
17452;DHT22;8843;48.838;9.324;2022-08-21T15:47:19;26.00;48.70
17452;DHT22;8843;48.838;9.324;2022-08-21T15:49:46;25.70;50.90
17452;DHT22;8843;48.838;9.324;2022-08-21T15:52:17;25.40;52.30
17452;DHT22;8843;48.838;9.324;2022-08-21T15:54:44;25.10;53.00
17452;DHT22;8843;48.838;9.324;2022-08-21T15:57:14;25.50;50.80
17452;DHT22;8843;48.838;9.324;2022-08-21T15:59:44;25.80;49.80
17452;DHT22;8843;48.838;9.324;2022-08-21T16:02:15;25.70;49.90
17452;DHT22;8843;48.838;9.324;2022-08-21T16:04:43;25.60;50.50